Time;durP1;ratioP1;P1;durP2;ratioP2;P2;SDS_P1;SDS_P2;PMS_P1;PMS_P2;Temp;Humidity;BMP_temperature;BMP_pressure;BME280_temperature;BME280_humidity;BME280_pressure;Samples;Min_cycle;Max_cycle;Signal;HPM_P1;HPM_P2
2022/07/13 00:00:58;;;;;;;14.05;10.95;;;13.00;99.90;;;;;;5093696;28;20089;-73
2022/07/13 00:03:25;;;;;;;5.82;3.03;;;13.00;99.90;;;;;;5097506;28;20477;-73
2022/07/13 00:05:52;;;;;;;7.60;3.70;;;12.90;99.90;;;;;;5079932;28;20054;-73
2022/07/13 00:08:20;;;;;;;6.00;3.38;;;12.90;99.90;;;;;;5098184;28;20153;-74
2022/07/13 00:10:47;;;;;;;5.43;3.63;;;12.90;99.90;;;;;;5079676;28;20040;-73
2022/07/13 00:13:14;;;;;;;6.32;3.40;;;12.90;99.90;;;;;;5097493;28;20039;-73
2022/07/13 00:15:43;;;;;;;7.00;3.60;;;12.80;99.90;;;;;;5097764;28;20056;-73
2022/07/13 00:18:10;;;;;;;5.15;3.30;;;12.80;99.90;;;;;;5097667;28;20040;-74
2022/07/13 00:20:37;;;;;;;5.22;3.63;;;12.80;99.90;;;;;;5097535;28;20503;-73
2022/07/13 00:23:05;;;;;;;5.63;3.63;;;12.80;99.90;;;;;;5078899;28;20097;-74
2022/07/13 00:25:32;;;;;;;4.97;3.80;;;12.80;99.90;;;;;;5098575;28;20044;-73
2022/07/13 00:27:59;;;;;;;5.53;3.13;;;12.70;99.90;;;;;;5079144;28;20044;-73
2022/07/13 00:30:26;;;;;;;5.30;3.42;;;12.80;99.90;;;;;;5078606;28;20052;-73
2022/07/13 00:32:55;;;;;;;5.13;3.28;;;12.70;99.90;;;;;;5096860;28;20098;-74
2022/07/13 00:35:22;;;;;;;6.55;3.20;;;12.60;99.90;;;;;;5082437;28;20055;-74
2022/07/13 00:37:50;;;;;;;5.32;3.35;;;12.60;99.90;;;;;;5081307;28;20565;-73
2022/07/13 00:40:17;;;;;;;6.47;3.00;;;12.60;99.90;;;;;;5079868;28;20051;-73
2022/07/13 00:42:45;;;;;;;5.07;3.40;;;12.50;99.90;;;;;;5079048;28;20055;-73
2022/07/13 00:45:12;;;;;;;5.25;3.50;;;12.60;99.90;;;;;;5079642;28;20048;-73
2022/07/13 00:47:41;;;;;;;6.85;3.50;;;12.50;99.90;;;;;;5080035;28;20438;-73
2022/07/13 00:50:11;;;;;;;7.88;3.25;;;12.40;99.90;;;;;;5100336;28;20089;-73
2022/07/13 00:52:39;;;;;;;5.38;3.47;;;12.30;99.90;;;;;;5080436;28;20109;-73
2022/07/13 00:55:09;;;;;;;7.22;3.53;;;12.30;99.90;;;;;;5079576;28;20044;-74
2022/07/13 00:57:37;;;;;;;4.88;3.50;;;12.30;99.90;;;;;;5079905;28;20064;-74
2022/07/13 01:00:07;;;;;;;5.10;3.65;;;12.20;99.90;;;;;;5080878;28;20059;-74
2022/07/13 01:02:37;;;;;;;5.85;3.60;;;12.20;99.90;;;;;;5090623;28;20064;-74
2022/07/13 01:05:06;;;;;;;5.13;3.15;;;12.20;99.90;;;;;;5090046;28;20156;-74
2022/07/13 01:07:35;;;;;;;5.38;2.95;;;12.20;99.90;;;;;;5084641;28;20551;-73
2022/07/13 01:10:05;;;;;;;6.15;3.35;;;12.20;99.90;;;;;;5096405;28;20452;-74
2022/07/13 01:12:33;;;;;;;6.60;3.22;;;12.20;99.90;;;;;;5078275;28;20590;-74
2022/07/13 01:15:01;;;;;;;6.63;3.60;;;12.20;99.90;;;;;;5078573;28;20044;-74
2022/07/13 01:17:31;;;;;;;5.78;2.83;;;12.20;99.90;;;;;;5096561;28;20106;-73
2022/07/13 01:19:59;;;;;;;5.13;3.22;;;12.20;99.90;;;;;;5096380;28;20036;-74
2022/07/13 01:22:32;;;;;;;6.25;3.05;;;12.10;99.90;;;;;;5095715;28;20465;-74
2022/07/13 01:25:02;;;;;;;6.30;3.35;;;12.10;99.90;;;;;;5096815;28;20077;-74
2022/07/13 01:27:29;;;;;;;5.07;3.08;;;12.10;99.90;;;;;;5078056;28;20131;-74
2022/07/13 01:29:57;;;;;;;4.63;3.22;;;12.00;99.90;;;;;;5096417;28;20036;-74
2022/07/13 01:32:24;;;;;;;4.63;3.10;;;12.00;99.90;;;;;;5096164;28;20040;-74
2022/07/13 01:34:51;;;;;;;5.28;3.45;;;11.90;99.90;;;;;;5095950;28;20106;-73
2022/07/13 01:37:19;;;;;;;5.15;3.20;;;11.90;99.90;;;;;;5100589;28;20440;-73
2022/07/13 01:39:46;;;;;;;6.78;3.22;;;11.90;99.90;;;;;;5093712;28;20074;-73
2022/07/13 01:42:15;;;;;;;5.43;3.60;;;11.90;99.90;;;;;;5083282;28;20056;-74
2022/07/13 01:44:44;;;;;;;9.05;3.72;;;11.80;99.90;;;;;;5077944;28;20040;-72
2022/07/13 01:47:12;;;;;;;5.30;3.22;;;11.80;99.90;;;;;;5077805;28;20036;-73
2022/07/13 01:49:39;;;;;;;5.82;3.03;;;11.80;99.90;;;;;;5082157;28;20050;-73
2022/07/13 01:52:06;;;;;;;5.40;3.10;;;11.80;99.90;;;;;;5115632;28;20048;-73
2022/07/13 01:54:34;;;;;;;5.68;3.13;;;11.80;99.90;;;;;;5082505;28;20438;-73
2022/07/13 01:57:01;;;;;;;7.50;3.85;;;11.80;99.90;;;;;;5077884;28;20040;-73
2022/07/13 01:59:30;;;;;;;6.07;3.28;;;11.70;99.90;;;;;;5077682;28;20040;-74
2022/07/13 02:01:57;;;;;;;10.77;3.88;;;11.60;99.90;;;;;;5078065;28;20052;-73
2022/07/13 02:04:25;;;;;;;7.32;3.97;;;11.50;99.90;;;;;;5095253;28;20039;-73
2022/07/13 02:06:52;;;;;;;6.15;3.28;;;11.40;99.90;;;;;;5077381;28;20438;-74
2022/07/13 02:09:21;;;;;;;7.65;3.45;;;11.50;99.90;;;;;;5095418;28;20029;-73
2022/07/13 02:11:49;;;;;;;8.88;3.45;;;11.50;99.90;;;;;;5076912;28;20147;-73
2022/07/13 02:14:17;;;;;;;6.55;3.40;;;11.50;99.90;;;;;;5095337;28;20040;-74
2022/07/13 02:16:46;;;;;;;5.78;3.42;;;11.50;99.90;;;;;;5076232;28;20036;-74
2022/07/13 02:19:13;;;;;;;5.28;3.53;;;11.50;99.90;;;;;;5077024;28;21079;-74
2022/07/13 02:21:40;;;;;;;8.40;3.88;;;11.40;99.90;;;;;;5077016;28;20040;-74
2022/07/13 02:24:10;;;;;;;4.75;3.42;;;11.40;99.90;;;;;;5097788;28;20044;-74
2022/07/13 02:26:37;;;;;;;4.93;3.70;;;11.50;99.90;;;;;;5098533;28;20047;-74
2022/07/13 02:29:04;;;;;;;7.20;3.60;;;11.40;99.90;;;;;;5077025;28;20071;-73
2022/07/13 02:31:33;;;;;;;7.57;3.33;;;11.40;99.90;;;;;;5095593;28;20047;-74
2022/07/13 02:34:02;;;;;;;5.15;3.08;;;11.30;99.90;;;;;;5077123;28;20109;-73
2022/07/13 02:36:29;;;;;;;5.30;3.50;;;11.30;99.90;;;;;;5077231;28;20036;-74
2022/07/13 02:38:56;;;;;;;7.30;3.30;;;11.30;99.90;;;;;;5076904;28;20089;-73
2022/07/13 02:41:23;;;;;;;4.70;3.33;;;11.30;99.90;;;;;;5076739;28;20113;-72
2022/07/13 02:43:51;;;;;;;5.95;3.70;;;11.30;99.90;;;;;;5094238;28;20048;-74
2022/07/13 02:46:18;;;;;;;6.10;3.83;;;11.20;99.90;;;;;;5088297;28;20469;-74
2022/07/13 02:48:46;;;;;;;5.97;3.70;;;11.20;99.90;;;;;;5098119;28;20052;-73
2022/07/13 02:51:15;;;;;;;4.20;3.47;;;11.10;99.90;;;;;;5097120;28;20085;-74
2022/07/13 02:53:42;;;;;;;5.53;3.42;;;11.00;99.90;;;;;;5088790;28;20062;-74
2022/07/13 02:56:09;;;;;;;5.63;3.55;;;11.00;99.90;;;;;;5112307;28;20070;-74
2022/07/13 02:58:37;;;;;;;4.63;3.30;;;11.10;99.90;;;;;;5080447;28;20055;-74
2022/07/13 03:01:04;;;;;;;7.85;3.47;;;11.10;99.90;;;;;;5094769;28;20047;-73
2022/07/13 03:03:31;;;;;;;6.47;3.80;;;11.10;99.90;;;;;;5076581;28;20044;-73
2022/07/13 03:06:01;;;;;;;5.80;3.53;;;11.00;99.90;;;;;;5076342;28;20036;-73
2022/07/13 03:08:29;;;;;;;3.97;3.42;;;11.10;99.90;;;;;;5094788;28;20051;-74
2022/07/13 03:10:57;;;;;;;6.85;3.63;;;11.00;99.90;;;;;;5060210;28;20521;-75
2022/07/13 03:13:24;;;;;;;5.03;3.55;;;10.90;99.90;;;;;;5055803;28;20144;-73
2022/07/13 03:15:53;;;;;;;7.03;3.55;;;10.90;99.90;;;;;;5076672;28;20451;-73
2022/07/13 03:18:20;;;;;;;5.55;3.80;;;10.90;99.90;;;;;;5075942;28;20047;-73
2022/07/13 03:20:49;;;;;;;10.38;3.35;;;10.90;99.90;;;;;;5076032;28;20437;-73
2022/07/13 03:23:16;;;;;;;6.00;3.30;;;11.00;99.90;;;;;;5075866;28;20046;-72
2022/07/13 03:25:46;;;;;;;5.55;3.60;;;11.10;99.90;;;;;;5094468;28;20510;-74
2022/07/13 03:28:13;;;;;;;6.15;3.33;;;11.10;99.90;;;;;;5095166;28;20380;-73
2022/07/13 03:30:41;;;;;;;7.57;3.40;;;11.00;99.90;;;;;;5076422;28;20403;-73
2022/07/13 03:33:08;;;;;;;6.40;3.65;;;11.10;99.90;;;;;;5096139;28;20044;-73
2022/07/13 03:35:36;;;;;;;7.00;4.40;;;11.00;99.90;;;;;;5085808;28;20058;-74
2022/07/13 03:38:04;;;;;;;7.32;3.78;;;11.10;99.90;;;;;;5076032;28;20044;-73
2022/07/13 03:40:33;;;;;;;7.25;4.00;;;11.10;99.90;;;;;;5075910;28;20048;-73
2022/07/13 03:43:04;;;;;;;5.38;3.67;;;11.10;99.90;;;;;;5098796;22;20104;-71
2022/07/13 03:45:31;;;;;;;6.72;3.80;;;11.10;99.90;;;;;;5072080;28;20406;-72
2022/07/13 03:47:59;;;;;;;5.63;3.55;;;11.10;99.90;;;;;;5080286;28;20513;-71
2022/07/13 03:50:26;;;;;;;6.60;3.97;;;11.10;99.90;;;;;;5079298;28;20070;-71
2022/07/13 03:52:54;;;;;;;5.55;3.83;;;11.20;99.90;;;;;;5079334;28;20052;-71
2022/07/13 03:55:23;;;;;;;5.18;3.65;;;11.30;99.90;;;;;;5081379;28;20070;-71
2022/07/13 03:57:50;;;;;;;8.80;4.10;;;11.40;99.90;;;;;;5080775;28;20070;-72
2022/07/13 04:00:21;;;;;;;6.93;4.15;;;11.50;99.90;;;;;;5067299;28;20044;-72
2022/07/13 04:02:52;;;;;;;7.05;3.70;;;11.90;99.90;;;;;;5081920;28;20048;-72
2022/07/13 04:05:20;;;;;;;6.95;4.05;;;12.70;99.90;;;;;;5074619;28;20045;-71
2022/07/13 04:07:48;;;;;;;8.82;3.15;;;13.80;99.90;;;;;;5084029;28;20039;-72
2022/07/13 04:10:18;;;;;;;8.63;3.53;;;14.90;99.90;;;;;;5086471;28;20115;-71
2022/07/13 04:12:46;;;;;;;5.03;3.05;;;15.80;38.60;;;;;;5085969;28;20044;-71
2022/07/13 04:15:14;;;;;;;15.45;3.47;;;16.90;1.00;;;;;;5077384;28;20063;-70
2022/07/13 04:17:45;;;;;;;8.15;2.72;;;18.00;1.00;;;;;;5075401;28;20127;-71
2022/07/13 04:20:12;;;;;;;6.05;3.08;;;18.80;1.00;;;;;;5075123;28;20487;-71
2022/07/13 04:22:43;;;;;;;7.57;3.20;;;19.40;1.00;;;;;;5074899;28;20510;-70
2022/07/13 04:25:11;;;;;;;7.68;3.80;;;19.60;99.90;;;;;;5075450;28;20055;-71
2022/07/13 04:27:40;;;;;;;5.40;3.00;;;20.00;99.90;;;;;;5075672;28;20490;-70
2022/07/13 04:30:08;;;;;;;6.68;2.88;;;20.10;1.00;;;;;;5093465;28;20083;-71
2022/07/13 04:32:36;;;;;;;5.82;2.90;;;20.40;1.00;;;;;;5080161;28;20063;-71
2022/07/13 04:35:06;;;;;;;4.00;2.75;;;20.80;99.90;;;;;;5078575;28;20074;-70
2022/07/13 04:37:37;;;;;;;5.38;3.40;;;21.30;99.90;;;;;;5078978;28;20040;-70
2022/07/13 04:40:06;;;;;;;24.42;4.85;;;21.40;99.90;;;;;;5078201;28;20142;-71
2022/07/13 04:42:35;;;;;;;13.70;4.35;;;21.50;99.90;;;;;;5068470;28;20071;-70
2022/07/13 04:45:02;;;;;;;9.10;3.72;;;21.10;99.90;;;;;;5076730;28;20079;-70
2022/07/13 04:47:30;;;;;;;12.02;5.20;;;21.10;99.90;;;;;;5076998;28;20402;-70
2022/07/13 04:49:58;;;;;;;7.38;3.65;;;21.60;99.90;;;;;;5080040;28;20067;-70
2022/07/13 04:52:26;;;;;;;8.05;3.88;;;22.10;99.90;;;;;;5079176;28;20498;-71
2022/07/13 04:54:54;;;;;;;9.35;3.90;;;21.90;99.90;;;;;;5073041;28;20048;-71
2022/07/13 04:57:21;;;;;;;11.88;5.28;;;21.70;99.90;;;;;;5070133;28;20075;-71
2022/07/13 04:59:49;;;;;;;10.85;5.38;;;21.70;99.90;;;;;;5071114;28;20135;-71
2022/07/13 05:02:16;;;;;;;13.55;5.32;;;21.90;99.90;;;;;;5086826;28;20086;-71
2022/07/13 05:04:43;;;;;;;10.15;5.18;;;22.00;99.90;;;;;;5090315;28;20494;-71
2022/07/13 05:07:11;;;;;;;10.07;4.05;;;22.50;99.90;;;;;;5075516;28;20089;-70
2022/07/13 05:09:40;;;;;;;7.47;3.80;;;23.20;99.90;;;;;;5078341;28;20051;-71
2022/07/13 05:12:08;;;;;;;6.97;3.63;;;23.60;99.90;;;;;;5078466;28;20058;-69
2022/07/13 05:14:36;;;;;;;9.00;3.75;;;23.80;99.90;;;;;;5073070;28;20037;-70
2022/07/13 05:17:03;;;;;;;9.40;3.63;;;23.90;99.20;;;;;;5073383;28;20044;-70
2022/07/13 05:19:31;;;;;;;12.88;6.35;;;24.10;98.40;;;;;;5072202;28;20056;-70
2022/07/13 05:21:58;;;;;;;9.00;3.75;;;24.40;98.20;;;;;;5065655;28;20040;-70
2022/07/13 05:24:27;;;;;;;12.52;4.35;;;25.10;97.10;;;;;;5077781;28;20055;-71
2022/07/13 05:26:56;;;;;;;10.18;4.15;;;25.20;96.60;;;;;;5077370;28;20097;-70
2022/07/13 05:29:24;;;;;;;12.50;4.60;;;25.80;94.90;;;;;;5097249;28;20402;-70
2022/07/13 05:31:52;;;;;;;8.02;4.05;;;26.10;93.80;;;;;;5093185;28;20081;-71
2022/07/13 05:34:19;;;;;;;6.05;3.45;;;26.30;93.30;;;;;;5078120;28;20048;-70
2022/07/13 05:36:48;;;;;;;7.78;4.20;;;26.40;92.10;;;;;;5078894;28;20055;-70
2022/07/13 05:39:15;;;;;;;7.68;4.22;;;26.50;91.40;;;;;;5079417;28;20425;-69
2022/07/13 05:41:43;;;;;;;19.17;5.55;;;26.00;91.00;;;;;;5079481;28;20044;-70
2022/07/13 05:44:11;;;;;;;7.28;4.80;;;25.00;91.70;;;;;;5078695;28;20479;-70
2022/07/13 05:46:40;;;;;;;9.07;4.70;;;24.80;92.20;;;;;;5079565;28;20048;-70
2022/07/13 05:49:09;;;;;;;10.63;5.05;;;24.90;92.40;;;;;;5078277;28;20048;-70
2022/07/13 05:51:36;;;;;;;9.20;5.43;;;25.10;92.90;;;;;;5077287;28;20048;-70
2022/07/13 05:54:07;;;;;;;10.60;6.65;;;25.30;92.50;;;;;;5075162;28;20048;-70
2022/07/13 05:56:35;;;;;;;13.07;6.22;;;25.10;92.20;;;;;;5078757;28;20047;-71
2022/07/13 05:59:02;;;;;;;10.57;5.57;;;24.90;92.80;;;;;;5090743;28;20140;-71
2022/07/13 06:01:31;;;;;;;11.88;6.72;;;24.80;92.70;;;;;;5095506;28;20469;-71
2022/07/13 06:03:58;;;;;;;30.40;16.20;;;24.60;93.50;;;;;;5095196;28;20040;-70
2022/07/13 06:06:26;;;;;;;29.83;16.13;;;24.30;94.20;;;;;;5094284;28;20101;-71
2022/07/13 06:08:53;;;;;;;15.30;11.23;;;24.10;94.60;;;;;;5095406;28;20047;-71
2022/07/13 06:11:20;;;;;;;15.05;11.95;;;24.10;95.00;;;;;;5110257;28;20063;-71
2022/07/13 06:13:47;;;;;;;15.27;11.02;;;24.20;94.70;;;;;;5099542;28;20040;-71
2022/07/13 06:16:15;;;;;;;16.45;8.20;;;24.10;95.40;;;;;;5095589;28;20094;-70
2022/07/13 06:18:43;;;;;;;13.73;8.02;;;23.80;95.70;;;;;;5082841;28;20115;-70
2022/07/13 06:21:11;;;;;;;11.95;7.20;;;23.50;96.80;;;;;;5094166;28;20089;-70
2022/07/13 06:23:38;;;;;;;11.38;6.65;;;23.60;96.80;;;;;;5095329;28;20069;-71
2022/07/13 06:26:06;;;;;;;13.50;8.35;;;23.60;97.00;;;;;;5107131;28;20121;-71
2022/07/13 06:28:34;;;;;;;10.23;6.60;;;23.40;97.00;;;;;;5077815;28;20093;-71
2022/07/13 06:31:01;;;;;;;11.43;6.75;;;23.50;97.20;;;;;;5097281;28;20105;-71
2022/07/13 06:33:28;;;;;;;13.30;8.18;;;23.50;97.20;;;;;;5077381;28;20341;-71
2022/07/13 06:35:57;;;;;;;18.83;8.68;;;23.50;97.70;;;;;;5108699;28;20503;-70
2022/07/13 06:38:24;;;;;;;13.57;8.43;;;23.50;96.70;;;;;;5089885;28;20432;-70
2022/07/13 06:40:51;;;;;;;14.43;8.10;;;23.50;96.70;;;;;;5078116;28;20494;-71
2022/07/13 06:43:19;;;;;;;17.45;7.72;;;23.60;96.80;;;;;;5105497;28;20101;-70
2022/07/13 06:45:46;;;;;;;17.52;7.65;;;24.10;96.40;;;;;;5112923;28;20048;-71
2022/07/13 06:48:14;;;;;;;12.10;7.10;;;24.30;96.00;;;;;;5096241;28;20044;-71
2022/07/13 06:50:41;;;;;;;13.27;7.15;;;24.40;95.70;;;;;;5094546;28;20078;-71
2022/07/13 06:53:10;;;;;;;14.35;7.30;;;24.00;95.90;;;;;;5094556;28;20040;-71
2022/07/13 06:55:37;;;;;;;13.57;7.10;;;23.60;96.50;;;;;;5087038;28;20495;-72
2022/07/13 06:58:05;;;;;;;16.30;9.25;;;23.40;97.20;;;;;;5068672;28;20047;-70
2022/07/13 07:00:32;;;;;;;14.20;8.25;;;22.90;97.90;;;;;;5076406;28;20048;-68
2022/07/13 07:02:59;;;;;;;15.70;7.47;;;22.80;98.80;;;;;;5079512;28;20043;-69
2022/07/13 07:05:27;;;;;;;13.25;7.90;;;23.10;98.40;;;;;;5113276;28;20061;-69
2022/07/13 07:07:54;;;;;;;17.77;8.40;;;23.30;98.40;;;;;;5133322;28;20043;-69
2022/07/13 07:10:23;;;;;;;10.32;5.82;;;23.60;98.20;;;;;;5110450;28;20067;-69
2022/07/13 07:12:50;;;;;;;10.15;6.03;;;23.70;97.70;;;;;;5091316;28;20709;-69
2022/07/13 07:15:17;;;;;;;9.68;6.05;;;23.70;97.80;;;;;;5080219;28;20071;-69
2022/07/13 07:17:45;;;;;;;9.52;5.70;;;23.20;98.20;;;;;;5096126;28;20044;-69
2022/07/13 07:20:15;;;;;;;11.90;7.03;;;22.90;98.70;;;;;;5093699;28;20498;-69
2022/07/13 07:22:44;;;;;;;12.82;6.22;;;23.30;99.10;;;;;;5094350;28;20131;-69
2022/07/13 07:25:11;;;;;;;14.55;7.68;;;23.70;98.60;;;;;;5074005;28;20052;-69
2022/07/13 07:27:41;;;;;;;20.23;12.75;;;23.60;98.80;;;;;;5073897;28;20037;-69
2022/07/13 07:30:09;;;;;;;12.88;7.00;;;23.40;99.50;;;;;;5098426;28;20043;-70
2022/07/13 07:32:36;;;;;;;14.77;8.18;;;23.30;99.20;;;;;;5112197;28;20044;-68
2022/07/13 07:35:04;;;;;;;13.10;6.78;;;23.30;98.90;;;;;;5113026;28;20058;-69
2022/07/13 07:37:31;;;;;;;15.93;6.25;;;23.40;99.30;;;;;;5113963;28;20063;-69
2022/07/13 07:39:58;;;;;;;13.93;6.35;;;22.90;99.90;;;;;;5100472;28;20437;-69
2022/07/13 07:42:25;;;;;;;11.50;6.47;;;23.00;99.90;;;;;;5093689;28;20074;-69
2022/07/13 07:44:54;;;;;;;8.95;6.78;;;23.10;99.90;;;;;;5095054;28;20095;-68
2022/07/13 07:47:24;;;;;;;13.93;7.82;;;23.20;99.90;;;;;;5095186;28;20036;-69
2022/07/13 07:49:52;;;;;;;15.20;9.50;;;23.40;99.90;;;;;;5099434;28;20040;-69
2022/07/13 07:52:19;;;;;;;12.63;7.03;;;23.60;99.20;;;;;;5095404;28;20047;-69
2022/07/13 07:54:47;;;;;;;17.52;9.50;;;23.80;98.90;;;;;;5094257;28;20085;-69
2022/07/13 07:57:14;;;;;;;13.60;7.72;;;24.00;98.60;;;;;;5094154;28;20044;-69
2022/07/13 07:59:42;;;;;;;13.95;7.82;;;24.20;98.30;;;;;;5093409;28;20105;-69
2022/07/13 08:02:11;;;;;;;10.50;6.97;;;24.30;97.80;;;;;;5095490;28;20067;-69
2022/07/13 08:04:39;;;;;;;18.02;7.90;;;24.50;97.60;;;;;;5076196;28;20048;-69
2022/07/13 08:07:07;;;;;;;10.75;6.60;;;24.50;97.10;;;;;;5096702;28;20097;-69
2022/07/13 08:09:35;;;;;;;12.85;7.22;;;24.60;97.00;;;;;;5093447;28;20050;-69
2022/07/13 08:12:04;;;;;;;12.88;5.60;;;25.00;96.90;;;;;;5093530;28;20043;-69
2022/07/13 08:14:31;;;;;;;12.25;5.70;;;25.00;96.60;;;;;;5061632;28;20044;-68
2022/07/13 08:16:59;;;;;;;12.38;6.70;;;25.00;96.70;;;;;;5093469;28;20046;-68
2022/07/13 08:19:28;;;;;;;15.32;7.90;;;25.10;96.00;;;;;;5093094;28;20072;-69
2022/07/13 08:21:55;;;;;;;11.90;5.63;;;25.10;95.50;;;;;;5093309;28;20040;-69
2022/07/13 08:24:22;;;;;;;8.70;5.28;;;25.30;95.60;;;;;;5096777;28;20051;-69
2022/07/13 08:26:53;;;;;;;13.57;5.72;;;25.00;95.10;;;;;;5097452;28;20064;-69
2022/07/13 08:29:20;;;;;;;14.82;5.10;;;25.10;95.20;;;;;;5096140;28;20039;-69
2022/07/13 08:31:47;;;;;;;12.75;5.35;;;25.00;95.20;;;;;;5107123;28;20494;-69
2022/07/13 08:39:47;;;;;;;7.18;4.68;;;24.90;95.10;;;;;;5088514;28;20036;-69
2022/07/13 08:42:14;;;;;;;8.45;5.57;;;25.20;94.70;;;;;;5097075;28;20040;-69
2022/07/13 08:44:42;;;;;;;7.32;4.30;;;25.20;94.60;;;;;;5098180;28;20131;-69
2022/07/13 08:47:11;;;;;;;8.95;3.95;;;25.40;93.00;;;;;;5099008;28;20050;-69
2022/07/13 08:49:38;;;;;;;12.48;7.20;;;25.40;93.10;;;;;;5102447;28;20047;-69
2022/07/13 08:52:07;;;;;;;11.55;5.25;;;25.70;92.50;;;;;;5103690;28;20040;-69
2022/07/13 08:54:35;;;;;;;11.15;6.57;;;25.80;92.40;;;;;;5102810;28;20113;-69
2022/07/13 08:57:02;;;;;;;9.05;4.82;;;26.10;92.20;;;;;;5107990;28;20548;-69
2022/07/13 08:59:29;;;;;;;7.13;2.95;;;26.40;91.00;;;;;;5107076;28;20122;-69
2022/07/13 09:01:57;;;;;;;8.27;4.53;;;26.10;89.70;;;;;;5096301;28;20132;-69
2022/07/13 09:04:24;;;;;;;9.27;6.38;;;26.30;89.90;;;;;;5096232;28;20044;-69
2022/07/13 09:06:52;;;;;;;13.25;4.90;;;26.50;87.20;;;;;;5097471;28;20059;-69
2022/07/13 09:09:35;;;;;;;6.13;4.00;;;26.60;81.80;;;;;;5097113;28;20073;-69
2022/07/13 09:12:16;;;;;;;8.25;5.25;;;26.30;82.00;;;;;;5096342;28;20560;-69
2022/07/13 09:14:45;;;;;;;6.32;3.70;;;26.40;81.40;;;;;;5096182;28;20509;-69
2022/07/13 09:17:33;;;;;;;6.57;3.60;;;26.70;80.90;;;;;;5078321;28;20059;-70
2022/07/13 09:20:05;;;;;;;4.70;2.83;;;27.30;79.20;;;;;;5087207;28;20048;-69
2022/07/13 09:22:32;;;;;;;4.40;2.70;;;27.80;77.80;;;;;;5076122;28;20119;-69
2022/07/13 09:25:01;;;;;;;5.25;2.40;;;27.70;75.30;;;;;;5076067;28;20041;-69
2022/07/13 09:27:45;;;;;;;6.25;3.55;;;27.60;75.70;;;;;;5076007;28;20051;-69
2022/07/13 09:30:21;;;;;;;6.03;3.70;;;27.60;75.40;;;;;;5076323;28;20480;-69
2022/07/13 09:32:49;;;;;;;9.38;3.85;;;27.20;74.90;;;;;;5075955;28;20098;-70
2022/07/13 09:35:16;;;;;;;7.60;3.30;;;26.80;75.10;;;;;;5074463;28;20043;-69
2022/07/13 09:37:44;;;;;;;6.80;3.83;;;26.70;75.50;;;;;;5075897;28;20052;-69
2022/07/13 09:40:17;;;;;;;5.13;2.00;;;27.00;75.30;;;;;;5057869;28;20040;-68
2022/07/13 09:42:46;;;;;;;4.70;1.88;;;27.10;73.20;;;;;;5075813;28;20061;-69
2022/07/13 09:48:00;;;;;;;4.47;1.38;;;27.20;71.60;;;;;;5075254;28;20047;-70
2022/07/13 09:50:38;;;;;;;4.45;1.48;;;27.00;71.80;;;;;;5075652;28;20041;-69
2022/07/13 09:53:25;;;;;;;5.28;2.60;;;26.50;71.00;;;;;;5058085;28;20044;-69
2022/07/13 09:55:54;;;;;;;4.07;1.85;;;26.30;71.80;;;;;;5075347;28;20510;-69
2022/07/13 09:58:28;;;;;;;8.07;2.55;;;26.30;71.60;;;;;;5075184;28;20040;-70
2022/07/13 10:00:57;;;;;;;4.03;2.40;;;26.50;71.60;;;;;;5074828;28;20472;-69
2022/07/13 10:03:26;;;;;;;7.07;3.67;;;26.90;70.70;;;;;;5074649;28;20076;-70
2022/07/13 10:05:54;;;;;;;5.22;2.00;;;27.30;70.50;;;;;;5057324;28;20078;-70
2022/07/13 10:08:22;;;;;;;6.07;1.80;;;27.50;69.70;;;;;;5074503;28;20047;-70
2022/07/13 10:10:50;;;;;;;7.47;4.15;;;27.70;68.20;;;;;;5056658;28;20049;-70
2022/07/13 10:13:19;;;;;;;5.13;2.75;;;27.70;68.00;;;;;;5074183;28;20048;-69
2022/07/13 10:15:47;;;;;;;5.28;3.05;;;27.70;66.00;;;;;;5074388;28;20572;-69
2022/07/13 10:18:21;;;;;;;2.55;1.10;;;27.50;64.70;;;;;;5074601;28;20048;-70
2022/07/13 10:20:54;;;;;;;6.88;1.33;;;27.10;63.00;;;;;;5074336;28;20040;-70
2022/07/13 10:23:39;;;;;;;7.90;1.55;;;27.10;62.70;;;;;;5074528;28;20165;-70
2022/07/13 10:26:20;;;;;;;3.77;1.27;;;26.50;62.10;;;;;;5074841;28;20106;-69
2022/07/13 10:29:10;;;;;;;4.95;1.33;;;26.30;61.90;;;;;;5074560;28;20044;-70
2022/07/13 10:31:38;;;;;;;4.85;2.25;;;26.40;62.10;;;;;;5069523;28;20060;-70
2022/07/13 10:34:07;;;;;;;4.40;2.45;;;26.60;62.80;;;;;;5074077;28;20040;-70
2022/07/13 10:36:57;;;;;;;5.70;2.47;;;27.00;62.50;;;;;;5074311;28;20068;-70
2022/07/13 10:39:26;;;;;;;3.83;1.70;;;27.40;62.30;;;;;;5074333;28;20415;-69
2022/07/13 10:41:56;;;;;;;3.30;1.17;;;27.90;61.00;;;;;;5074141;28;20040;-69
2022/07/13 10:44:39;;;;;;;6.55;2.47;;;27.80;60.50;;;;;;5091409;28;20575;-69
2022/07/13 10:47:08;;;;;;;4.55;1.80;;;27.90;60.10;;;;;;5094055;28;20097;-69
2022/07/13 10:49:37;;;;;;;9.57;6.95;;;28.20;59.70;;;;;;5094724;28;20458;-70
2022/07/13 10:52:52;;;;;;;5.45;3.60;;;28.20;58.50;;;;;;5094106;28;20051;-70
2022/07/13 10:55:33;;;;;;;4.38;2.33;;;27.90;58.40;;;;;;5095662;28;20090;-70
2022/07/13 10:58:01;;;;;;;3.75;1.83;;;27.60;58.80;;;;;;5095227;28;20487;-70
2022/07/13 11:00:43;;;;;;;4.82;1.42;;;27.60;57.30;;;;;;5094855;28;20036;-69
2022/07/13 11:03:30;;;;;;;2.58;1.00;;;27.60;56.60;;;;;;5094111;28;20044;-69
2022/07/13 11:06:08;;;;;;;6.88;1.30;;;27.20;57.10;;;;;;5075881;28;20433;-70
2022/07/13 11:08:36;;;;;;;2.22;1.10;;;26.70;57.50;;;;;;5076181;28;20054;-69
2022/07/13 11:11:11;;;;;;;11.00;7.80;;;26.80;58.20;;;;;;5075994;28;20051;-69
2022/07/13 11:13:39;;;;;;;6.45;2.05;;;26.80;58.20;;;;;;5093701;28;20055;-69
2022/07/13 11:16:08;;;;;;;5.55;2.10;;;27.10;57.50;;;;;;5075188;28;20452;-70
2022/07/13 11:18:37;;;;;;;3.08;2.10;;;27.60;57.30;;;;;;5094023;28;20391;-69
2022/07/13 11:21:06;;;;;;;3.95;2.03;;;27.70;57.10;;;;;;5093787;28;20122;-69
2022/07/13 11:26:29;;;;;;;3.15;1.20;;;28.10;57.30;;;;;;5093897;28;20043;-70
2022/07/13 11:29:08;;;;;;;8.27;1.75;;;28.10;56.20;;;;;;5076422;28;20044;-69
2022/07/13 11:31:37;;;;;;;8.82;2.00;;;28.20;57.10;;;;;;5094941;28;20036;-69
2022/07/13 11:34:04;;;;;;;2.75;1.20;;;28.50;56.70;;;;;;5094938;28;20047;-70
2022/07/13 11:36:32;;;;;;;4.75;1.45;;;28.70;55.80;;;;;;5093647;28;20067;-70
2022/07/13 11:38:59;;;;;;;2.10;1.30;;;28.90;55.30;;;;;;5093053;28;20039;-70
2022/07/13 11:41:27;;;;;;;2.30;1.20;;;28.50;55.60;;;;;;5094100;28;20479;-69
2022/07/13 11:43:55;;;;;;;3.90;2.10;;;27.70;56.80;;;;;;5075080;28;20112;-71
2022/07/13 11:46:24;;;;;;;8.20;5.57;;;27.90;57.10;;;;;;5093649;28;20097;-70
2022/07/13 11:49:04;;;;;;;5.30;2.40;;;28.00;57.10;;;;;;5093196;28;20051;-71
2022/07/13 11:51:32;;;;;;;7.78;5.05;;;27.90;57.00;;;;;;5093004;28;20090;-69
2022/07/13 11:54:08;;;;;;;4.22;1.55;;;28.10;57.20;;;;;;5092933;28;20157;-70
2022/07/13 11:56:35;;;;;;;5.38;3.53;;;28.30;56.70;;;;;;5092831;28;20101;-70
2022/07/13 11:59:03;;;;;;;4.20;2.40;;;28.30;56.60;;;;;;5093382;28;20380;-70
2022/07/13 12:01:30;;;;;;;7.60;3.92;;;28.10;57.40;;;;;;5093414;28;20131;-70
2022/07/13 12:03:57;;;;;;;7.07;2.13;;;27.90;58.00;;;;;;5092192;28;20040;-71
2022/07/13 12:06:29;;;;;;;5.53;2.20;;;27.60;58.90;;;;;;5091865;28;20086;-70
2022/07/13 12:08:56;;;;;;;11.15;3.70;;;27.50;59.90;;;;;;5093163;28;20499;-70
2022/07/13 12:11:24;;;;;;;11.25;4.05;;;27.50;60.20;;;;;;5092942;28;20044;-70
2022/07/13 12:13:51;;;;;;;12.07;7.00;;;27.60;59.40;;;;;;5092893;28;20163;-69
2022/07/13 12:16:19;;;;;;;5.60;2.97;;;27.50;59.10;;;;;;5093105;28;20411;-70
2022/07/13 12:19:01;;;;;;;6.30;2.30;;;27.40;59.20;;;;;;5092758;28;20753;-69
2022/07/13 12:21:30;;;;;;;2.47;1.40;;;27.30;59.40;;;;;;5072743;28;20041;-69
2022/07/13 12:23:58;;;;;;;10.90;2.63;;;27.30;58.30;;;;;;5072919;28;20426;-71
2022/07/13 12:26:25;;;;;;;4.50;1.38;;;27.40;58.70;;;;;;5084087;28;20068;-70
2022/07/13 12:28:53;;;;;;;4.53;1.60;;;27.40;58.70;;;;;;5092787;28;20040;-70
2022/07/13 12:31:21;;;;;;;4.70;2.65;;;27.30;59.70;;;;;;5093099;28;20402;-70
2022/07/13 12:33:50;;;;;;;5.75;3.70;;;27.30;59.60;;;;;;5092468;28;20040;-70
2022/07/13 12:36:20;;;;;;;5.35;3.33;;;27.40;58.20;;;;;;5092965;28;20044;-70
2022/07/13 12:38:55;;;;;;;7.90;5.18;;;27.50;57.20;;;;;;5093112;28;20036;-71
2022/07/13 12:41:27;;;;;;;;;;;27.60;57.60;;;;;;5093829;28;20044;-70
2022/07/13 12:43:58;;;;;;;5.65;1.67;;;27.60;57.10;;;;;;5073731;28;20022;-70
2022/07/13 12:46:26;;;;;;;5.47;2.72;;;27.30;57.10;;;;;;5092504;28;20403;-71
2022/07/13 12:49:01;;;;;;;4.65;1.77;;;27.30;58.10;;;;;;5092908;28;20123;-70
2022/07/13 12:51:51;;;;;;;4.85;1.70;;;27.30;57.80;;;;;;5092467;28;20047;-69
2022/07/13 12:54:40;;;;;;;3.67;1.45;;;27.50;58.60;;;;;;5073874;28;20468;-70
2022/07/13 12:57:11;;;;;;;5.32;1.33;;;27.50;58.60;;;;;;5101323;28;20441;-72
2022/07/13 12:59:40;;;;;;;3.70;1.55;;;27.50;57.60;;;;;;5072496;28;20075;-70
2022/07/13 13:02:07;;;;;;;4.40;1.50;;;27.40;57.30;;;;;;5072345;28;20070;-71
2022/07/13 13:04:35;;;;;;;3.53;1.77;;;27.40;58.40;;;;;;5083948;28;20048;-70